Minerva Atlantica — ZCPR7 — position and weather

sailwx.info

Track history (hours):
 
Tides and Currents Weather Stations Pressure Air Temp Water Temp Dewpoint Dewpoint Depression Visibility Wind Speed Wind Dir Waves Ship Positions

Minerva Atlantica

Last reported at 2016-Jun-01 04:19 UTC. Time now 2016-Jun-01 05:32 UTC.
Position N 60°20' E 028°42'.

Length 250 m; draft 8.2 m.

Type: Ship (hazmat cat A). MMSI: 319161000.

Date/timePositionNaut miles runAvg speedWind from/ knotsBaromVisibWave heightAir tempDewpointWater temp
2016-Jun-01 04:19N 60°20' E 028°42'0 0.0
2016-Jun-01 03:22N 60°20' E 028°42'0 0.0
2016-Jun-01 01:19N 60°20' E 028°42'0 0.0
2016-Jun-01 00:25N 60°20' E 028°42'1 0.7
2016-May-31 23:30N 60°20' E 028°41'7 7.3
2016-May-31 22:33N 60°14' E 028°46'1211.9
2016-May-31 21:33N 60°04' E 028°33'4 3.9
2016-May-31 20:31N 60°01' E 028°27'0 0.1
2016-May-31 19:19N 60°01' E 028°27'0 0.0
2016-May-31 18:31N 60°01' E 028°27'0 0.0
2016-May-31 17:31N 60°01' E 028°27'0 0.0
2016-May-31 16:31N 60°01' E 028°27'0 0.0
2016-May-31 15:22N 60°01' E 028°27'0 0.0
2016-May-31 14:22N 60°01' E 028°27'0 0.0
2016-May-31 13:25N 60°01' E 028°27'0 0.0
2016-May-31 12:25N 60°01' E 028°27'0 0.0
2016-May-31 11:28N 60°01' E 028°27'0 0.0
2016-May-31 10:28N 60°01' E 028°27'1 1.3
2016-May-31 09:33N 60°02' E 028°27'1010.2
2016-May-31 08:33N 60°08' E 028°10'1312.5
2016-May-31 07:33N 60°10' E 027°45'1312.6
2016-May-31 06:33N 60°04' E 027°24'2411.9
2016-May-31 04:33N 59°59' E 026°37'1312.7
2016-May-31 03:33N 59°56' E 026°12'1212.5
2016-May-31 02:33N 59°52' E 025°48'1312.6
2016-May-31 01:33N 59°50' E 025°24'1312.5
2016-May-31 00:32N 59°47' E 024°59'1812.6
2016-May-30 23:05N 59°43' E 024°24'712.8
2016-May-30 22:33N 59°41' E 024°11'1312.6
2016-May-30 21:33N 59°37' E 023°47'1312.6
2016-May-30 20:33N 59°33' E 023°23'1312.8
2016-May-30 19:31N 59°29' E 022°59'1212.6
2016-May-30 18:33N 59°25' E 022°36'1312.4
2016-May-30 17:30N 59°17' E 022°16'1812.3
2016-May-30 16:04N 59°06' E 021°48'712.6
2016-May-30 15:33N 59°01' E 021°41'19912.3
2016-May-29 23:21N 55°57' E 019°16'1012.7
2016-May-29 22:34N 55°48' E 019°12'1312.5
2016-May-29 21:32N 55°35' E 019°07'1212.3
2016-May-29 20:33N 55°23' E 019°03'1212.5
2016-May-29 19:33N 55°11' E 019°03'1212.4
2016-May-29 18:33N 54°59' E 019°04'1312.6
2016-May-29 17:33N 54°46' E 019°05'1212.1
2016-May-29 16:33N 54°34' E 019°05'1010.0
2016-May-29 15:33N 54°27' E 018°53'6 6.5
2016-May-29 14:33N 54°24' E 018°43'0 0.0
2016-May-29 13:32N 54°24' E 018°43'0 0.0
2016-May-29 12:32N 54°24' E 018°43'0 0.0
2016-May-29 11:32N 54°24' E 018°43'0 0.0
2016-May-29 10:32N 54°24' E 018°43'0 0.0
2016-May-29 09:32N 54°24' E 018°43'0 0.0
2016-May-29 08:32N 54°24' E 018°43'0 0.0
2016-May-29 07:32N 54°24' E 018°43'0 0.0
2016-May-29 06:32N 54°24' E 018°43'0 0.0
2016-May-29 05:32N 54°24' E 018°43'0 0.0
2016-May-29 04:32N 54°24' E 018°43'0 0.0
2016-May-29 03:32N 54°24' E 018°43'0 0.0
2016-May-29 02:32N 54°24' E 018°43'0 0.0
2016-May-29 01:32N 54°24' E 018°43'0 0.0
2016-May-29 00:32N 54°24' E 018°43'0 0.0
2016-May-28 23:32N 54°24' E 018°43'0 0.0
2016-May-28 22:32N 54°24' E 018°43'0 0.0
2016-May-28 21:32N 54°24' E 018°43'0 0.0
2016-May-28 20:32N 54°24' E 018°43'0 0.0
2016-May-28 19:32N 54°24' E 018°43'0 0.0
2016-May-28 18:32N 54°24' E 018°43'0 0.0
2016-May-28 17:32N 54°24' E 018°43'0 0.0
2016-May-28 16:32N 54°24' E 018°43'0 0.0
2016-May-28 15:32N 54°24' E 018°43'0 0.0
2016-May-28 14:32N 54°24' E 018°43'0 0.0
2016-May-28 13:32N 54°24' E 018°43'0 0.0
2016-May-28 12:32N 54°24' E 018°43'2 1.7
2016-May-28 11:33N 54°24' E 018°46'8 7.5
2016-May-28 10:34N 54°28' E 018°57'10 9.8
2016-May-28 09:34N 54°37' E 019°04'1110.6
2016-May-28 08:34N 54°47' E 019°03'1111.2
2016-May-28 07:34N 54°59' E 019°03'1211.7
2016-May-28 06:33N 55°10' E 019°03'1212.4
2016-May-28 05:33N 55°23' E 019°02'1212.4
2016-May-28 04:34N 55°35' E 019°06'1212.5
2016-May-28 03:34N 55°47' E 019°11'23712.4
2016-May-27 08:28N 59°24' E 022°12'1312.6
2016-May-27 07:27N 59°31' E 022°33'1512.9
2016-May-27 06:17N 59°35' E 023°01'912.8
2016-May-27 05:33N 59°38' E 023°19'1312.9
2016-May-27 04:33N 59°41' E 023°44'1313.1
2016-May-27 03:33N 59°45' E 024°08'5412.9
2016-May-26 23:22N 59°56' E 025°54'1212.5
2016-May-26 22:23N 59°59' E 026°17'1012.2
2016-May-26 21:33N 60°01' E 026°37'1212.2
2016-May-26 20:33N 59°59' E 027°01'1212.4
2016-May-26 19:33N 60°05' E 027°23'1212.6
2016-May-26 18:33N 60°12' E 027°45'1212.1
2016-May-26 17:33N 60°09' E 028°08'1111.4
2016-May-26 16:33N 60°09' E 028°31'9 8.9
2016-May-26 15:33N 60°13' E 028°46'7 6.9
2016-May-26 14:33N 60°20' E 028°42'0 0.0
2016-May-25 06:33N 60°20' E 028°42'6 6.0
2016-May-25 05:33N 60°15' E 028°48'1313.4
2016-May-25 04:33N 60°03' E 028°33'4 3.4
2016-May-25 03:31N 60°00' E 028°29'0 0.1
2016-May-25 02:31N 60°00' E 028°29'0 0.1
2016-May-25 01:19N 60°00' E 028°29'0 0.0
2016-May-25 00:31N 60°00' E 028°29'0 0.0
2016-May-24 23:31N 60°00' E 028°29'0 0.0
2016-May-24 22:31N 60°00' E 028°29'0 0.0
2016-May-24 21:25N 60°00' E 028°29'0 0.0
2016-May-24 20:25N 60°00' E 028°29'0 0.0
2016-May-24 19:25N 60°00' E 028°29'0 0.0
2016-May-24 18:28N 60°00' E 028°29'0 0.0
2016-May-24 17:28N 60°00' E 028°29'0 0.0
2016-May-24 16:28N 60°00' E 028°29'0 0.0
2016-May-24 15:31N 60°00' E 028°29'0 0.1
2016-May-24 14:31N 60°00' E 028°29'0 0.1
2016-May-24 13:31N 60°00' E 028°29'0 0.1
2016-May-24 12:28N 60°01' E 028°29'0 0.0
2016-May-24 11:31N 60°01' E 028°29'0 0.0
2016-May-24 10:31N 60°01' E 028°29'0 0.0
2016-May-24 09:31N 60°01' E 028°29'0 0.0
2016-May-24 08:22N 60°01' E 028°29'0 0.0
2016-May-24 07:22N 60°01' E 028°29'0 0.0
2016-May-24 06:25N 60°01' E 028°29'0 0.0
2016-May-24 05:25N 60°01' E 028°29'0 0.0
2016-May-24 04:28N 60°01' E 028°29'0 0.0
2016-May-24 03:28N 60°01' E 028°29'0 0.0
2016-May-24 02:28N 60°01' E 028°29'0 0.0
2016-May-24 01:31N 60°01' E 028°29'0 0.0
2016-May-24 00:31N 60°01' E 028°29'0 0.0
2016-May-23 23:31N 60°01' E 028°29'0 0.1
2016-May-23 22:31N 60°01' E 028°29'0 0.1
2016-May-23 21:31N 60°01' E 028°29'0 0.1
2016-May-23 20:31N 60°00' E 028°29'0 0.1
2016-May-23 19:31N 60°00' E 028°29'0 0.0
2016-May-23 18:31N 60°00' E 028°29'0 0.0
2016-May-23 17:25N 60°00' E 028°29'0 0.0
2016-May-23 16:25N 60°00' E 028°29'0 0.0
2016-May-23 15:25N 60°00' E 028°29'0 0.0
2016-May-23 14:25N 60°00' E 028°29'0 0.1
2016-May-23 13:28N 60°01' E 028°29'2 1.7
2016-May-23 12:33N 60°02' E 028°28'1111.5
2016-May-23 11:33N 60°08' E 028°09'1212.0
2016-May-23 10:33N 60°10' E 027°45'1212.4
2016-May-23 09:33N 60°04' E 027°23'1212.3
2016-May-23 08:33N 59°58' E 027°02'1212.3
2016-May-23 07:33N 59°59' E 026°38'1312.5
2016-May-23 06:33N 59°56' E 026°13'1212.4
2016-May-23 05:33N 59°53' E 025°50'4312.5
2016-May-23 02:04N 59°43' E 024°25'612.4
2016-May-23 01:33N 59°41' E 024°13'1312.6
2016-May-23 00:33N 59°37' E 023°50'1312.6
2016-May-22 23:33N 59°34' E 023°26'1312.6
2016-May-22 22:33N 59°30' E 023°02'1312.6
2016-May-22 21:33N 59°26' E 022°39'1312.7
2016-May-22 20:33N 59°18' E 022°19'1212.5
2016-May-22 19:33N 59°11' E 021°59'  
Track history (hours):
 
Tides and Currents Weather Stations Pressure Air Temp Water Temp Dewpoint Dewpoint Depression Visibility Wind Speed Wind Dir Waves Ship Positions

Minerva Atlantica

Last reported at 2016-Jun-01 04:19 UTC. Time now 2016-Jun-01 05:32 UTC.
Position N 60°20' E 028°42'.

Length 250 m; draft 8.2 m.

Type: Ship (hazmat cat A). MMSI: 319161000.

Date/timePositionNaut miles runAvg speedWind from/ knotsBaromVisibWave heightAir tempDewpointWater temp
2016-Jun-01 04:19N 60°20' E 028°42'0 0.0
2016-Jun-01 03:22N 60°20' E 028°42'0 0.0
2016-Jun-01 01:19N 60°20' E 028°42'0 0.0
2016-Jun-01 00:25N 60°20' E 028°42'1 0.7
2016-May-31 23:30N 60°20' E 028°41'7 7.3
2016-May-31 22:33N 60°14' E 028°46'1211.9
2016-May-31 21:33N 60°04' E 028°33'4 3.9
2016-May-31 20:31N 60°01' E 028°27'0 0.1
2016-May-31 19:19N 60°01' E 028°27'0 0.0
2016-May-31 18:31N 60°01' E 028°27'0 0.0
2016-May-31 17:31N 60°01' E 028°27'0 0.0
2016-May-31 16:31N 60°01' E 028°27'0 0.0
2016-May-31 15:22N 60°01' E 028°27'0 0.0
2016-May-31 14:22N 60°01' E 028°27'0 0.0
2016-May-31 13:25N 60°01' E 028°27'0 0.0
2016-May-31 12:25N 60°01' E 028°27'0 0.0
2016-May-31 11:28N 60°01' E 028°27'0 0.0
2016-May-31 10:28N 60°01' E 028°27'1 1.3
2016-May-31 09:33N 60°02' E 028°27'1010.2
2016-May-31 08:33N 60°08' E 028°10'1312.5
2016-May-31 07:33N 60°10' E 027°45'1312.6
2016-May-31 06:33N 60°04' E 027°24'2411.9
2016-May-31 04:33N 59°59' E 026°37'1312.7
2016-May-31 03:33N 59°56' E 026°12'1212.5
2016-May-31 02:33N 59°52' E 025°48'1312.6
2016-May-31 01:33N 59°50' E 025°24'1312.5
2016-May-31 00:32N 59°47' E 024°59'1812.6
2016-May-30 23:05N 59°43' E 024°24'712.8
2016-May-30 22:33N 59°41' E 024°11'1312.6
2016-May-30 21:33N 59°37' E 023°47'1312.6
2016-May-30 20:33N 59°33' E 023°23'1312.8
2016-May-30 19:31N 59°29' E 022°59'1212.6
2016-May-30 18:33N 59°25' E 022°36'1312.4
2016-May-30 17:30N 59°17' E 022°16'1812.3
2016-May-30 16:04N 59°06' E 021°48'712.6
2016-May-30 15:33N 59°01' E 021°41'19912.3
2016-May-29 23:21N 55°57' E 019°16'1012.7
2016-May-29 22:34N 55°48' E 019°12'1312.5
2016-May-29 21:32N 55°35' E 019°07'1212.3
2016-May-29 20:33N 55°23' E 019°03'1212.5
2016-May-29 19:33N 55°11' E 019°03'1212.4
2016-May-29 18:33N 54°59' E 019°04'1312.6
2016-May-29 17:33N 54°46' E 019°05'1212.1
2016-May-29 16:33N 54°34' E 019°05'1010.0
2016-May-29 15:33N 54°27' E 018°53'6 6.5
2016-May-29 14:33N 54°24' E 018°43'0 0.0
2016-May-29 13:32N 54°24' E 018°43'0 0.0
2016-May-29 12:32N 54°24' E 018°43'0 0.0
2016-May-29 11:32N 54°24' E 018°43'0 0.0
2016-May-29 10:32N 54°24' E 018°43'0 0.0
2016-May-29 09:32N 54°24' E 018°43'0 0.0
2016-May-29 08:32N 54°24' E 018°43'0 0.0
2016-May-29 07:32N 54°24' E 018°43'0 0.0
2016-May-29 06:32N 54°24' E 018°43'0 0.0
2016-May-29 05:32N 54°24' E 018°43'0 0.0
2016-May-29 04:32N 54°24' E 018°43'0 0.0
2016-May-29 03:32N 54°24' E 018°43'0 0.0
2016-May-29 02:32N 54°24' E 018°43'0 0.0
2016-May-29 01:32N 54°24' E 018°43'0 0.0
2016-May-29 00:32N 54°24' E 018°43'0 0.0
2016-May-28 23:32N 54°24' E 018°43'0 0.0
2016-May-28 22:32N 54°24' E 018°43'0 0.0
2016-May-28 21:32N 54°24' E 018°43'0 0.0
2016-May-28 20:32N 54°24' E 018°43'0 0.0
2016-May-28 19:32N 54°24' E 018°43'0 0.0
2016-May-28 18:32N 54°24' E 018°43'0 0.0
2016-May-28 17:32N 54°24' E 018°43'0 0.0
2016-May-28 16:32N 54°24' E 018°43'0 0.0
2016-May-28 15:32N 54°24' E 018°43'0 0.0
2016-May-28 14:32N 54°24' E 018°43'0 0.0
2016-May-28 13:32N 54°24' E 018°43'0 0.0
2016-May-28 12:32N 54°24' E 018°43'2 1.7
2016-May-28 11:33N 54°24' E 018°46'8 7.5
2016-May-28 10:34N 54°28' E 018°57'10 9.8
2016-May-28 09:34N 54°37' E 019°04'1110.6
2016-May-28 08:34N 54°47' E 019°03'1111.2
2016-May-28 07:34N 54°59' E 019°03'1211.7
2016-May-28 06:33N 55°10' E 019°03'1212.4
2016-May-28 05:33N 55°23' E 019°02'1212.4
2016-May-28 04:34N 55°35' E 019°06'1212.5
2016-May-28 03:34N 55°47' E 019°11'23712.4
2016-May-27 08:28N 59°24' E 022°12'1312.6
2016-May-27 07:27N 59°31' E 022°33'1512.9
2016-May-27 06:17N 59°35' E 023°01'912.8
2016-May-27 05:33N 59°38' E 023°19'1312.9
2016-May-27 04:33N 59°41' E 023°44'1313.1
2016-May-27 03:33N 59°45' E 024°08'5412.9
2016-May-26 23:22N 59°56' E 025°54'1212.5
2016-May-26 22:23N 59°59' E 026°17'1012.2
2016-May-26 21:33N 60°01' E 026°37'1212.2
2016-May-26 20:33N 59°59' E 027°01'1212.4
2016-May-26 19:33N 60°05' E 027°23'1212.6
2016-May-26 18:33N 60°12' E 027°45'1212.1
2016-May-26 17:33N 60°09' E 028°08'1111.4
2016-May-26 16:33N 60°09' E 028°31'9 8.9
2016-May-26 15:33N 60°13' E 028°46'7 6.9
2016-May-26 14:33N 60°20' E 028°42'0 0.0
2016-May-25 06:33N 60°20' E 028°42'6 6.0
2016-May-25 05:33N 60°15' E 028°48'1313.4
2016-May-25 04:33N 60°03' E 028°33'4 3.4
2016-May-25 03:31N 60°00' E 028°29'0 0.1
2016-May-25 02:31N 60°00' E 028°29'0 0.1
2016-May-25 01:19N 60°00' E 028°29'0 0.0
2016-May-25 00:31N 60°00' E 028°29'0 0.0
2016-May-24 23:31N 60°00' E 028°29'0 0.0
2016-May-24 22:31N 60°00' E 028°29'0 0.0
2016-May-24 21:25N 60°00' E 028°29'0 0.0
2016-May-24 20:25N 60°00' E 028°29'0 0.0
2016-May-24 19:25N 60°00' E 028°29'0 0.0
2016-May-24 18:28N 60°00' E 028°29'0 0.0
2016-May-24 17:28N 60°00' E 028°29'0 0.0
2016-May-24 16:28N 60°00' E 028°29'0 0.0
2016-May-24 15:31N 60°00' E 028°29'0 0.1
2016-May-24 14:31N 60°00' E 028°29'0 0.1
2016-May-24 13:31N 60°00' E 028°29'0 0.1
2016-May-24 12:28N 60°01' E 028°29'0 0.0
2016-May-24 11:31N 60°01' E 028°29'0 0.0
2016-May-24 10:31N 60°01' E 028°29'0 0.0
2016-May-24 09:31N 60°01' E 028°29'0 0.0
2016-May-24 08:22N 60°01' E 028°29'0 0.0
2016-May-24 07:22N 60°01' E 028°29'0 0.0
2016-May-24 06:25N 60°01' E 028°29'0 0.0
2016-May-24 05:25N 60°01' E 028°29'0 0.0
2016-May-24 04:28N 60°01' E 028°29'0 0.0
2016-May-24 03:28N 60°01' E 028°29'0 0.0
2016-May-24 02:28N 60°01' E 028°29'0 0.0
2016-May-24 01:31N 60°01' E 028°29'0 0.0
2016-May-24 00:31N 60°01' E 028°29'0 0.0
2016-May-23 23:31N 60°01' E 028°29'0 0.1
2016-May-23 22:31N 60°01' E 028°29'0 0.1
2016-May-23 21:31N 60°01' E 028°29'0 0.1
2016-May-23 20:31N 60°00' E 028°29'0 0.1
2016-May-23 19:31N 60°00' E 028°29'0 0.0
2016-May-23 18:31N 60°00' E 028°29'0 0.0
2016-May-23 17:25N 60°00' E 028°29'0 0.0
2016-May-23 16:25N 60°00' E 028°29'0 0.0
2016-May-23 15:25N 60°00' E 028°29'0 0.0
2016-May-23 14:25N 60°00' E 028°29'0 0.1
2016-May-23 13:28N 60°01' E 028°29'2 1.7
2016-May-23 12:33N 60°02' E 028°28'1111.5
2016-May-23 11:33N 60°08' E 028°09'1212.0
2016-May-23 10:33N 60°10' E 027°45'1212.4
2016-May-23 09:33N 60°04' E 027°23'1212.3
2016-May-23 08:33N 59°58' E 027°02'1212.3
2016-May-23 07:33N 59°59' E 026°38'1312.5
2016-May-23 06:33N 59°56' E 026°13'1212.4
2016-May-23 05:33N 59°53' E 025°50'4312.5
2016-May-23 02:04N 59°43' E 024°25'612.4
2016-May-23 01:33N 59°41' E 024°13'1312.6
2016-May-23 00:33N 59°37' E 023°50'1312.6
2016-May-22 23:33N 59°34' E 023°26'1312.6
2016-May-22 22:33N 59°30' E 023°02'1312.6
2016-May-22 21:33N 59°26' E 022°39'1312.7
2016-May-22 20:33N 59°18' E 022°19'1212.5
2016-May-22 19:33N 59°11' E 021°59'  

Dump ship's entire track history